PGUM/GUM METAR and TAF weather

Enter ICAO airport designator
Station Type Date Time Source
PGUM METAR 2023/01/30 09:54 UTC NOAA

PGUM 300954Z 09007KT 10SM FEW043 27/24 A2988 RMK AO2 SLP109 T02720239


Station Type Date Time Source
PGUM Decoded METAR 2023/01/30 09:54 UTC NOAA

Agana, Guam International Airport, GU, United States (PGUM) 13-29N 144-48E
Jan 30, 2023 - 04:54 AM EST / 2023.01.30 0954 UTC
Wind: from the E (090 degrees) at 8 MPH (7 KT):0
Visibility: 10 mile(s):0
Sky conditions: mostly clear
Temperature: 81.0 F (27.2 C)
Dew Point: 75.0 F (23.9 C)
Relative Humidity: 82%
Pressure (altimeter): 29.88 in. Hg (1011 hPa)
ob: PGUM 300954Z 09007KT 10SM FEW043 27/24 A2988 RMK AO2 SLP109 T02720239
cycle: 10

Station Type Date Time Source
PGUM TAF 2023/01/30 06:36 UTC NOAA

TAF PGUM 300531Z 3006/3112 09010KT P6SM VCSH SCT015 BKN035

Example: see airport list